sensor_id;sensor_type;location;lat;lon;timestamp;temperature;humidity
33827;DHT22;20128;45.582;5.298;2023-04-25T00:01:15;15.90;64.30
33827;DHT22;20128;45.582;5.298;2023-04-25T00:03:40;15.90;64.60
33827;DHT22;20128;45.582;5.298;2023-04-25T00:06:07;15.90;65.10
33827;DHT22;20128;45.582;5.298;2023-04-25T00:08:33;15.90;65.10
33827;DHT22;20128;45.582;5.298;2023-04-25T00:10:59;15.90;65.30
33827;DHT22;20128;45.582;5.298;2023-04-25T00:13:25;15.90;65.10
33827;DHT22;20128;45.582;5.298;2023-04-25T00:15:52;15.80;65.10
33827;DHT22;20128;45.582;5.298;2023-04-25T00:18:19;15.50;65.50
33827;DHT22;20128;45.582;5.298;2023-04-25T00:20:45;15.50;66.10
33827;DHT22;20128;45.582;5.298;2023-04-25T00:23:16;15.50;66.60
33827;DHT22;20128;45.582;5.298;2023-04-25T00:25:45;15.70;66.90
33827;DHT22;20128;45.582;5.298;2023-04-25T00:28:12;15.80;66.60
33827;DHT22;20128;45.582;5.298;2023-04-25T00:30:38;15.80;66.00
33827;DHT22;20128;45.582;5.298;2023-04-25T00:33:04;15.80;66.00
33827;DHT22;20128;45.582;5.298;2023-04-25T00:35:31;15.80;66.00
33827;DHT22;20128;45.582;5.298;2023-04-25T00:37:56;15.90;65.80
33827;DHT22;20128;45.582;5.298;2023-04-25T00:40:22;15.70;65.90
33827;DHT22;20128;45.582;5.298;2023-04-25T00:42:48;15.70;65.30
33827;DHT22;20128;45.582;5.298;2023-04-25T00:45:15;15.60;65.30
33827;DHT22;20128;45.582;5.298;2023-04-25T00:47:41;15.60;65.90
33827;DHT22;20128;45.582;5.298;2023-04-25T00:50:08;15.70;66.10
33827;DHT22;20128;45.582;5.298;2023-04-25T00:52:34;15.70;66.30
33827;DHT22;20128;45.582;5.298;2023-04-25T00:55:00;15.70;66.50
33827;DHT22;20128;45.582;5.298;2023-04-25T00:57:26;15.70;66.70
33827;DHT22;20128;45.582;5.298;2023-04-25T00:59:53;15.80;66.90
33827;DHT22;20128;45.582;5.298;2023-04-25T01:02:19;15.80;66.90
33827;DHT22;20128;45.582;5.298;2023-04-25T01:04:47;15.80;66.90
33827;DHT22;20128;45.582;5.298;2023-04-25T01:07:13;15.80;66.80
33827;DHT22;20128;45.582;5.298;2023-04-25T01:09:39;15.80;66.80
33827;DHT22;20128;45.582;5.298;2023-04-25T01:12:04;15.80;66.80
33827;DHT22;20128;45.582;5.298;2023-04-25T01:14:31;15.80;66.90
33827;DHT22;20128;45.582;5.298;2023-04-25T01:16:56;15.80;67.00
33827;DHT22;20128;45.582;5.298;2023-04-25T01:19:23;15.90;67.00
33827;DHT22;20128;45.582;5.298;2023-04-25T01:21:49;15.90;67.10
33827;DHT22;20128;45.582;5.298;2023-04-25T01:24:15;15.90;67.10
33827;DHT22;20128;45.582;5.298;2023-04-25T01:26:42;15.80;67.00
33827;DHT22;20128;45.582;5.298;2023-04-25T01:29:19;15.80;67.10
33827;DHT22;20128;45.582;5.298;2023-04-25T01:31:45;15.80;67.10
33827;DHT22;20128;45.582;5.298;2023-04-25T01:34:12;15.80;67.00
33827;DHT22;20128;45.582;5.298;2023-04-25T01:36:38;15.70;66.90
33827;DHT22;20128;45.582;5.298;2023-04-25T01:39:04;15.60;67.10
33827;DHT22;20128;45.582;5.298;2023-04-25T01:41:30;15.60;67.30
33827;DHT22;20128;45.582;5.298;2023-04-25T01:43:56;15.70;66.90
33827;DHT22;20128;45.582;5.298;2023-04-25T01:46:22;15.60;66.90
33827;DHT22;20128;45.582;5.298;2023-04-25T01:48:48;15.60;67.20
33827;DHT22;20128;45.582;5.298;2023-04-25T01:51:13;15.60;67.40
33827;DHT22;20128;45.582;5.298;2023-04-25T01:53:40;15.60;67.40
33827;DHT22;20128;45.582;5.298;2023-04-25T01:56:06;15.60;67.50
33827;DHT22;20128;45.582;5.298;2023-04-25T01:58:32;15.60;67.50
33827;DHT22;20128;45.582;5.298;2023-04-25T02:00:58;15.70;67.50
33827;DHT22;20128;45.582;5.298;2023-04-25T02:03:23;15.60;67.10
33827;DHT22;20128;45.582;5.298;2023-04-25T02:05:49;15.50;66.90
33827;DHT22;20128;45.582;5.298;2023-04-25T02:08:16;15.50;67.00
33827;DHT22;20128;45.582;5.298;2023-04-25T02:10:42;15.50;66.40
33827;DHT22;20128;45.582;5.298;2023-04-25T02:13:08;15.40;66.20
33827;DHT22;20128;45.582;5.298;2023-04-25T02:15:33;15.40;66.60
33827;DHT22;20128;45.582;5.298;2023-04-25T02:17:59;15.40;67.20
33827;DHT22;20128;45.582;5.298;2023-04-25T02:20:29;15.40;67.10
33827;DHT22;20128;45.582;5.298;2023-04-25T02:22:55;15.40;67.40
33827;DHT22;20128;45.582;5.298;2023-04-25T02:25:21;15.30;67.60
33827;DHT22;20128;45.582;5.298;2023-04-25T02:27:47;15.40;67.40
33827;DHT22;20128;45.582;5.298;2023-04-25T02:30:14;15.30;67.10
33827;DHT22;20128;45.582;5.298;2023-04-25T02:32:40;15.20;66.80
33827;DHT22;20128;45.582;5.298;2023-04-25T02:35:06;15.20;67.00
33827;DHT22;20128;45.582;5.298;2023-04-25T02:37:38;15.20;66.20
33827;DHT22;20128;45.582;5.298;2023-04-25T02:40:04;15.20;65.90
33827;DHT22;20128;45.582;5.298;2023-04-25T02:42:30;15.20;65.80
33827;DHT22;20128;45.582;5.298;2023-04-25T02:44:56;15.20;66.00
33827;DHT22;20128;45.582;5.298;2023-04-25T02:47:22;15.20;66.60
33827;DHT22;20128;45.582;5.298;2023-04-25T02:49:48;15.20;66.90
33827;DHT22;20128;45.582;5.298;2023-04-25T02:52:13;15.20;67.20
33827;DHT22;20128;45.582;5.298;2023-04-25T02:54:40;15.20;66.30
33827;DHT22;20128;45.582;5.298;2023-04-25T02:57:06;15.20;65.60
33827;DHT22;20128;45.582;5.298;2023-04-25T02:59:32;15.20;65.90
33827;DHT22;20128;45.582;5.298;2023-04-25T03:01:58;15.20;65.90
33827;DHT22;20128;45.582;5.298;2023-04-25T03:04:24;15.10;65.80
33827;DHT22;20128;45.582;5.298;2023-04-25T03:06:50;15.10;65.70
33827;DHT22;20128;45.582;5.298;2023-04-25T03:09:16;15.10;65.80
33827;DHT22;20128;45.582;5.298;2023-04-25T03:11:43;15.10;65.80
33827;DHT22;20128;45.582;5.298;2023-04-25T03:14:09;15.10;65.50
33827;DHT22;20128;45.582;5.298;2023-04-25T03:16:35;15.00;66.00
33827;DHT22;20128;45.582;5.298;2023-04-25T03:19:01;15.00;66.60
33827;DHT22;20128;45.582;5.298;2023-04-25T03:21:27;15.00;66.50
33827;DHT22;20128;45.582;5.298;2023-04-25T03:23:52;15.00;67.10
33827;DHT22;20128;45.582;5.298;2023-04-25T03:26:18;15.00;67.20
33827;DHT22;20128;45.582;5.298;2023-04-25T03:28:44;15.00;67.50
33827;DHT22;20128;45.582;5.298;2023-04-25T03:31:09;15.00;68.00
33827;DHT22;20128;45.582;5.298;2023-04-25T03:33:35;15.00;68.10
33827;DHT22;20128;45.582;5.298;2023-04-25T03:36:01;15.00;67.60
33827;DHT22;20128;45.582;5.298;2023-04-25T03:38:26;15.00;67.80
33827;DHT22;20128;45.582;5.298;2023-04-25T03:40:52;15.00;67.90
33827;DHT22;20128;45.582;5.298;2023-04-25T03:43:18;15.00;68.10
33827;DHT22;20128;45.582;5.298;2023-04-25T03:45:44;15.00;68.10
33827;DHT22;20128;45.582;5.298;2023-04-25T03:48:11;15.10;68.20
33827;DHT22;20128;45.582;5.298;2023-04-25T03:50:36;15.10;67.90
33827;DHT22;20128;45.582;5.298;2023-04-25T03:53:02;15.00;67.90
33827;DHT22;20128;45.582;5.298;2023-04-25T03:55:29;15.00;67.80
33827;DHT22;20128;45.582;5.298;2023-04-25T03:57:57;15.00;68.00
33827;DHT22;20128;45.582;5.298;2023-04-25T04:00:23;15.00;68.30
33827;DHT22;20128;45.582;5.298;2023-04-25T04:02:49;14.90;68.60
33827;DHT22;20128;45.582;5.298;2023-04-25T04:05:15;14.90;68.80
33827;DHT22;20128;45.582;5.298;2023-04-25T04:07:40;14.90;68.60
33827;DHT22;20128;45.582;5.298;2023-04-25T04:10:10;14.90;68.80
33827;DHT22;20128;45.582;5.298;2023-04-25T04:12:36;14.90;69.00
33827;DHT22;20128;45.582;5.298;2023-04-25T04:15:04;14.90;69.00
33827;DHT22;20128;45.582;5.298;2023-04-25T04:17:30;14.90;68.90
33827;DHT22;20128;45.582;5.298;2023-04-25T04:19:56;14.90;68.80
33827;DHT22;20128;45.582;5.298;2023-04-25T04:22:22;14.80;68.90
33827;DHT22;20128;45.582;5.298;2023-04-25T04:24:48;14.90;69.10
33827;DHT22;20128;45.582;5.298;2023-04-25T04:27:17;14.90;69.10
33827;DHT22;20128;45.582;5.298;2023-04-25T04:29:43;14.80;69.20
33827;DHT22;20128;45.582;5.298;2023-04-25T04:32:09;14.80;69.40
33827;DHT22;20128;45.582;5.298;2023-04-25T04:34:35;14.80;69.70
33827;DHT22;20128;45.582;5.298;2023-04-25T04:37:01;14.80;69.70
33827;DHT22;20128;45.582;5.298;2023-04-25T04:39:26;14.80;69.50
33827;DHT22;20128;45.582;5.298;2023-04-25T04:41:52;14.80;69.20
33827;DHT22;20128;45.582;5.298;2023-04-25T04:44:18;14.70;69.50
33827;DHT22;20128;45.582;5.298;2023-04-25T04:46:45;14.80;69.70
33827;DHT22;20128;45.582;5.298;2023-04-25T04:49:12;14.80;69.70
33827;DHT22;20128;45.582;5.298;2023-04-25T04:51:39;14.80;69.80
33827;DHT22;20128;45.582;5.298;2023-04-25T04:54:05;14.90;70.00
33827;DHT22;20128;45.582;5.298;2023-04-25T04:56:32;14.80;70.70
33827;DHT22;20128;45.582;5.298;2023-04-25T04:58:59;14.90;70.20
33827;DHT22;20128;45.582;5.298;2023-04-25T05:01:26;14.90;70.80
33827;DHT22;20128;45.582;5.298;2023-04-25T05:03:52;14.90;70.00
33827;DHT22;20128;45.582;5.298;2023-04-25T05:06:20;15.00;70.00
33827;DHT22;20128;45.582;5.298;2023-04-25T05:08:46;14.90;69.80
33827;DHT22;20128;45.582;5.298;2023-04-25T05:11:12;15.00;69.40
33827;DHT22;20128;45.582;5.298;2023-04-25T05:13:38;14.80;69.90
33827;DHT22;20128;45.582;5.298;2023-04-25T05:16:03;14.70;69.60
33827;DHT22;20128;45.582;5.298;2023-04-25T05:18:29;14.60;69.80
33827;DHT22;20128;45.582;5.298;2023-04-25T05:20:55;14.40;69.60
33827;DHT22;20128;45.582;5.298;2023-04-25T05:23:21;14.30;69.90
33827;DHT22;20128;45.582;5.298;2023-04-25T05:25:46;14.20;70.20
33827;DHT22;20128;45.582;5.298;2023-04-25T05:28:13;14.30;70.40
33827;DHT22;20128;45.582;5.298;2023-04-25T05:30:39;14.30;71.10
33827;DHT22;20128;45.582;5.298;2023-04-25T05:33:04;14.30;71.00
33827;DHT22;20128;45.582;5.298;2023-04-25T05:35:30;14.40;71.10
33827;DHT22;20128;45.582;5.298;2023-04-25T05:37:56;14.40;71.20
33827;DHT22;20128;45.582;5.298;2023-04-25T05:40:21;14.40;71.30
33827;DHT22;20128;45.582;5.298;2023-04-25T05:42:48;14.40;71.00
33827;DHT22;20128;45.582;5.298;2023-04-25T05:45:14;14.40;71.10
33827;DHT22;20128;45.582;5.298;2023-04-25T05:47:40;14.40;71.00
33827;DHT22;20128;45.582;5.298;2023-04-25T05:50:06;14.40;71.30
33827;DHT22;20128;45.582;5.298;2023-04-25T05:52:32;14.40;71.20
33827;DHT22;20128;45.582;5.298;2023-04-25T05:54:57;14.40;71.20
33827;DHT22;20128;45.582;5.298;2023-04-25T05:57:24;14.40;71.00
33827;DHT22;20128;45.582;5.298;2023-04-25T05:59:50;14.30;71.30
33827;DHT22;20128;45.582;5.298;2023-04-25T06:02:16;14.30;71.70
33827;DHT22;20128;45.582;5.298;2023-04-25T06:04:43;14.30;71.80
33827;DHT22;20128;45.582;5.298;2023-04-25T06:07:09;14.30;71.80
33827;DHT22;20128;45.582;5.298;2023-04-25T06:09:35;14.40;71.90
33827;DHT22;20128;45.582;5.298;2023-04-25T06:12:00;14.40;71.60
33827;DHT22;20128;45.582;5.298;2023-04-25T06:14:27;14.40;71.70
33827;DHT22;20128;45.582;5.298;2023-04-25T06:16:54;14.40;71.90
33827;DHT22;20128;45.582;5.298;2023-04-25T06:19:19;14.50;72.00
33827;DHT22;20128;45.582;5.298;2023-04-25T06:21:45;14.60;71.50
33827;DHT22;20128;45.582;5.298;2023-04-25T06:24:11;14.50;70.90
33827;DHT22;20128;45.582;5.298;2023-04-25T06:26:37;14.50;70.40
33827;DHT22;20128;45.582;5.298;2023-04-25T06:29:02;14.40;70.10
33827;DHT22;20128;45.582;5.298;2023-04-25T06:31:28;14.50;69.40
33827;DHT22;20128;45.582;5.298;2023-04-25T06:33:58;14.40;69.50
33827;DHT22;20128;45.582;5.298;2023-04-25T06:36:24;14.40;70.20
33827;DHT22;20128;45.582;5.298;2023-04-25T06:38:53;14.40;70.70
33827;DHT22;20128;45.582;5.298;2023-04-25T06:41:18;14.40;71.10
33827;DHT22;20128;45.582;5.298;2023-04-25T06:43:44;14.40;71.30
33827;DHT22;20128;45.582;5.298;2023-04-25T06:46:10;14.40;71.70
33827;DHT22;20128;45.582;5.298;2023-04-25T06:48:36;14.50;71.70
33827;DHT22;20128;45.582;5.298;2023-04-25T06:51:02;14.50;71.50
33827;DHT22;20128;45.582;5.298;2023-04-25T06:53:28;14.50;71.50
33827;DHT22;20128;45.582;5.298;2023-04-25T06:55:53;14.60;71.00
33827;DHT22;20128;45.582;5.298;2023-04-25T06:58:19;14.60;71.00
33827;DHT22;20128;45.582;5.298;2023-04-25T07:00:45;14.60;70.80
33827;DHT22;20128;45.582;5.298;2023-04-25T07:03:10;14.50;71.00
33827;DHT22;20128;45.582;5.298;2023-04-25T07:05:36;14.50;70.60
33827;DHT22;20128;45.582;5.298;2023-04-25T07:08:01;14.50;70.70
33827;DHT22;20128;45.582;5.298;2023-04-25T07:10:29;14.50;70.80
33827;DHT22;20128;45.582;5.298;2023-04-25T07:12:55;14.50;70.20
33827;DHT22;20128;45.582;5.298;2023-04-25T07:15:21;14.50;70.00
33827;DHT22;20128;45.582;5.298;2023-04-25T07:17:46;14.50;70.30
33827;DHT22;20128;45.582;5.298;2023-04-25T07:20:12;14.50;70.60
33827;DHT22;20128;45.582;5.298;2023-04-25T07:22:38;14.50;70.80
33827;DHT22;20128;45.582;5.298;2023-04-25T07:25:04;14.70;70.80
33827;DHT22;20128;45.582;5.298;2023-04-25T07:27:30;14.70;70.50
33827;DHT22;20128;45.582;5.298;2023-04-25T07:29:56;14.80;70.00
33827;DHT22;20128;45.582;5.298;2023-04-25T07:32:21;14.80;69.90
33827;DHT22;20128;45.582;5.298;2023-04-25T07:34:48;14.90;67.30
33827;DHT22;20128;45.582;5.298;2023-04-25T07:37:14;14.80;66.90
33827;DHT22;20128;45.582;5.298;2023-04-25T07:39:40;14.80;67.30
33827;DHT22;20128;45.582;5.298;2023-04-25T07:42:07;14.70;67.30
33827;DHT22;20128;45.582;5.298;2023-04-25T07:44:36;14.70;67.40
33827;DHT22;20128;45.582;5.298;2023-04-25T07:47:07;14.60;67.50
33827;DHT22;20128;45.582;5.298;2023-04-25T07:49:34;14.60;67.60
33827;DHT22;20128;45.582;5.298;2023-04-25T07:52:01;14.60;67.90
33827;DHT22;20128;45.582;5.298;2023-04-25T07:54:26;14.70;67.70
33827;DHT22;20128;45.582;5.298;2023-04-25T07:56:52;14.70;67.00
33827;DHT22;20128;45.582;5.298;2023-04-25T07:59:18;14.70;66.80
33827;DHT22;20128;45.582;5.298;2023-04-25T08:01:44;14.80;66.70
33827;DHT22;20128;45.582;5.298;2023-04-25T08:04:09;14.80;66.30
33827;DHT22;20128;45.582;5.298;2023-04-25T08:06:35;14.80;66.10
33827;DHT22;20128;45.582;5.298;2023-04-25T08:09:01;14.90;64.40
33827;DHT22;20128;45.582;5.298;2023-04-25T08:11:28;14.90;64.20
33827;DHT22;20128;45.582;5.298;2023-04-25T08:13:54;15.00;64.80
33827;DHT22;20128;45.582;5.298;2023-04-25T08:16:19;15.00;65.40
33827;DHT22;20128;45.582;5.298;2023-04-25T08:18:45;15.20;65.50
33827;DHT22;20128;45.582;5.298;2023-04-25T08:21:11;15.30;65.20
33827;DHT22;20128;45.582;5.298;2023-04-25T08:23:38;15.50;62.70
33827;DHT22;20128;45.582;5.298;2023-04-25T08:26:04;15.60;62.60
33827;DHT22;20128;45.582;5.298;2023-04-25T08:28:30;15.60;62.00
33827;DHT22;20128;45.582;5.298;2023-04-25T08:30:56;15.60;62.00
33827;DHT22;20128;45.582;5.298;2023-04-25T08:33:22;15.50;59.10
33827;DHT22;20128;45.582;5.298;2023-04-25T08:35:47;15.40;59.60
33827;DHT22;20128;45.582;5.298;2023-04-25T08:38:13;15.50;60.00
33827;DHT22;20128;45.582;5.298;2023-04-25T08:40:39;15.40;60.00
33827;DHT22;20128;45.582;5.298;2023-04-25T08:43:08;15.50;59.70
33827;DHT22;20128;45.582;5.298;2023-04-25T08:45:39;15.40;59.80
33827;DHT22;20128;45.582;5.298;2023-04-25T08:48:10;15.50;60.60
33827;DHT22;20128;45.582;5.298;2023-04-25T08:50:40;15.60;60.40
33827;DHT22;20128;45.582;5.298;2023-04-25T08:53:09;15.60;60.30
33827;DHT22;20128;45.582;5.298;2023-04-25T08:55:41;15.60;59.90
33827;DHT22;20128;45.582;5.298;2023-04-25T08:58:08;15.70;59.30
33827;DHT22;20128;45.582;5.298;2023-04-25T09:00:35;15.80;59.20
33827;DHT22;20128;45.582;5.298;2023-04-25T09:03:01;15.80;58.90
33827;DHT22;20128;45.582;5.298;2023-04-25T09:05:28;15.80;58.30
33827;DHT22;20128;45.582;5.298;2023-04-25T09:07:54;15.90;57.90
33827;DHT22;20128;45.582;5.298;2023-04-25T09:10:22;15.90;57.20
33827;DHT22;20128;45.582;5.298;2023-04-25T09:13:11;16.00;56.40
33827;DHT22;20128;45.582;5.298;2023-04-25T09:15:56;15.90;56.80
33827;DHT22;20128;45.582;5.298;2023-04-25T09:18:26;16.00;56.60
33827;DHT22;20128;45.582;5.298;2023-04-25T09:21:11;16.00;55.00
33827;DHT22;20128;45.582;5.298;2023-04-25T09:23:45;16.00;54.40
33827;DHT22;20128;45.582;5.298;2023-04-25T09:26:19;16.10;54.00
33827;DHT22;20128;45.582;5.298;2023-04-25T09:28:45;16.30;52.30
33827;DHT22;20128;45.582;5.298;2023-04-25T09:31:21;16.40;51.40
33827;DHT22;20128;45.582;5.298;2023-04-25T09:33:47;16.50;51.60
33827;DHT22;20128;45.582;5.298;2023-04-25T09:36:13;16.60;51.70
33827;DHT22;20128;45.582;5.298;2023-04-25T09:38:43;16.70;51.60
33827;DHT22;20128;45.582;5.298;2023-04-25T09:41:10;16.90;51.80
33827;DHT22;20128;45.582;5.298;2023-04-25T09:43:36;17.00;51.10
33827;DHT22;20128;45.582;5.298;2023-04-25T09:46:04;17.20;49.70
33827;DHT22;20128;45.582;5.298;2023-04-25T09:48:33;17.20;48.90
33827;DHT22;20128;45.582;5.298;2023-04-25T09:51:11;17.30;48.60
33827;DHT22;20128;45.582;5.298;2023-04-25T09:53:42;17.40;48.00
33827;DHT22;20128;45.582;5.298;2023-04-25T09:56:10;17.60;47.80
33827;DHT22;20128;45.582;5.298;2023-04-25T09:58:37;17.70;47.40
33827;DHT22;20128;45.582;5.298;2023-04-25T10:01:05;17.70;45.70
33827;DHT22;20128;45.582;5.298;2023-04-25T10:03:32;17.70;46.10
33827;DHT22;20128;45.582;5.298;2023-04-25T10:06:07;17.70;46.20
33827;DHT22;20128;45.582;5.298;2023-04-25T10:08:35;17.80;46.30
33827;DHT22;20128;45.582;5.298;2023-04-25T10:11:03;17.90;46.80
33827;DHT22;20128;45.582;5.298;2023-04-25T10:13:30;17.90;47.70
33827;DHT22;20128;45.582;5.298;2023-04-25T10:16:01;17.80;47.20
33827;DHT22;20128;45.582;5.298;2023-04-25T10:18:28;17.70;48.60
33827;DHT22;20128;45.582;5.298;2023-04-25T10:20:55;17.60;49.50
33827;DHT22;20128;45.582;5.298;2023-04-25T10:23:23;17.50;50.00
33827;DHT22;20128;45.582;5.298;2023-04-25T10:25:50;17.40;50.80
33827;DHT22;20128;45.582;5.298;2023-04-25T10:28:17;17.30;51.30
33827;DHT22;20128;45.582;5.298;2023-04-25T10:31:12;17.30;51.70
33827;DHT22;20128;45.582;5.298;2023-04-25T10:33:43;17.40;48.90
33827;DHT22;20128;45.582;5.298;2023-04-25T10:38:36;17.40;48.20
33827;DHT22;20128;45.582;5.298;2023-04-25T10:41:03;17.70;47.50
33827;DHT22;20128;45.582;5.298;2023-04-25T10:46:01;18.10;46.30
33827;DHT22;20128;45.582;5.298;2023-04-25T10:48:28;18.40;45.30
33827;DHT22;20128;45.582;5.298;2023-04-25T10:51:10;18.50;45.40
33827;DHT22;20128;45.582;5.298;2023-04-25T10:53:36;18.40;45.80
33827;DHT22;20128;45.582;5.298;2023-04-25T10:56:21;18.40;46.50
33827;DHT22;20128;45.582;5.298;2023-04-25T10:58:48;18.50;46.00
33827;DHT22;20128;45.582;5.298;2023-04-25T11:01:14;18.60;46.70
33827;DHT22;20128;45.582;5.298;2023-04-25T11:03:41;18.60;46.80
33827;DHT22;20128;45.582;5.298;2023-04-25T11:08:50;18.60;47.30
33827;DHT22;20128;45.582;5.298;2023-04-25T11:11:19;18.40;46.70
33827;DHT22;20128;45.582;5.298;2023-04-25T11:13:49;18.30;47.80
33827;DHT22;20128;45.582;5.298;2023-04-25T11:16:16;18.50;46.70
33827;DHT22;20128;45.582;5.298;2023-04-25T11:18:42;18.70;45.80
33827;DHT22;20128;45.582;5.298;2023-04-25T11:21:09;18.90;44.60
33827;DHT22;20128;45.582;5.298;2023-04-25T11:23:34;19.00;44.50
33827;DHT22;20128;45.582;5.298;2023-04-25T11:26:00;19.10;44.50
33827;DHT22;20128;45.582;5.298;2023-04-25T11:28:28;19.30;44.30
33827;DHT22;20128;45.582;5.298;2023-04-25T11:30:54;19.20;44.40
33827;DHT22;20128;45.582;5.298;2023-04-25T11:33:24;19.00;43.80
33827;DHT22;20128;45.582;5.298;2023-04-25T11:35:52;18.80;42.10
33827;DHT22;20128;45.582;5.298;2023-04-25T11:38:18;18.70;43.90
33827;DHT22;20128;45.582;5.298;2023-04-25T11:40:44;18.70;45.80
33827;DHT22;20128;45.582;5.298;2023-04-25T11:43:09;18.90;45.90
33827;DHT22;20128;45.582;5.298;2023-04-25T11:45:37;18.90;45.70
33827;DHT22;20128;45.582;5.298;2023-04-25T11:48:03;18.90;45.50
33827;DHT22;20128;45.582;5.298;2023-04-25T11:50:29;18.80;45.60
33827;DHT22;20128;45.582;5.298;2023-04-25T11:52:56;18.80;45.50
33827;DHT22;20128;45.582;5.298;2023-04-25T11:55:22;18.60;44.90
33827;DHT22;20128;45.582;5.298;2023-04-25T11:57:48;18.60;45.00
33827;DHT22;20128;45.582;5.298;2023-04-25T12:00:19;18.70;45.60
33827;DHT22;20128;45.582;5.298;2023-04-25T12:02:53;18.90;45.50
33827;DHT22;20128;45.582;5.298;2023-04-25T12:05:20;18.90;44.20
33827;DHT22;20128;45.582;5.298;2023-04-25T12:07:46;18.70;43.40
33827;DHT22;20128;45.582;5.298;2023-04-25T12:10:14;18.80;43.00
33827;DHT22;20128;45.582;5.298;2023-04-25T12:12:44;18.80;43.70
33827;DHT22;20128;45.582;5.298;2023-04-25T12:15:25;19.00;43.60
33827;DHT22;20128;45.582;5.298;2023-04-25T12:17:53;19.20;43.20
33827;DHT22;20128;45.582;5.298;2023-04-25T12:20:21;19.30;44.00
33827;DHT22;20128;45.582;5.298;2023-04-25T12:22:49;19.20;44.00
33827;DHT22;20128;45.582;5.298;2023-04-25T12:25:34;19.20;43.70
33827;DHT22;20128;45.582;5.298;2023-04-25T12:28:24;19.30;43.80
33827;DHT22;20128;45.582;5.298;2023-04-25T12:30:59;19.40;43.20
33827;DHT22;20128;45.582;5.298;2023-04-25T12:33:30;19.50;42.10
33827;DHT22;20128;45.582;5.298;2023-04-25T12:35:57;19.60;41.80
33827;DHT22;20128;45.582;5.298;2023-04-25T12:38:28;19.70;41.20
33827;DHT22;20128;45.582;5.298;2023-04-25T12:40:56;19.70;40.50
33827;DHT22;20128;45.582;5.298;2023-04-25T12:43:22;19.60;42.80
33827;DHT22;20128;45.582;5.298;2023-04-25T12:45:49;19.50;44.20
33827;DHT22;20128;45.582;5.298;2023-04-25T12:48:15;19.50;44.20
33827;DHT22;20128;45.582;5.298;2023-04-25T12:50:41;19.50;44.10
33827;DHT22;20128;45.582;5.298;2023-04-25T12:53:07;19.50;44.80
33827;DHT22;20128;45.582;5.298;2023-04-25T12:55:33;19.50;44.00
33827;DHT22;20128;45.582;5.298;2023-04-25T12:57:59;19.40;42.80
33827;DHT22;20128;45.582;5.298;2023-04-25T13:00:24;19.20;42.60
33827;DHT22;20128;45.582;5.298;2023-04-25T13:02:51;19.20;43.50
33827;DHT22;20128;45.582;5.298;2023-04-25T13:05:17;19.30;43.50
33827;DHT22;20128;45.582;5.298;2023-04-25T13:07:43;19.40;44.00
33827;DHT22;20128;45.582;5.298;2023-04-25T13:10:09;19.50;43.50
33827;DHT22;20128;45.582;5.298;2023-04-25T13:12:34;19.50;41.00
33827;DHT22;20128;45.582;5.298;2023-04-25T13:15:00;19.50;41.40
33827;DHT22;20128;45.582;5.298;2023-04-25T13:17:26;19.60;42.70
33827;DHT22;20128;45.582;5.298;2023-04-25T13:19:51;19.70;42.10
33827;DHT22;20128;45.582;5.298;2023-04-25T13:22:17;19.80;42.10
33827;DHT22;20128;45.582;5.298;2023-04-25T13:24:45;19.90;41.30
33827;DHT22;20128;45.582;5.298;2023-04-25T13:27:11;20.00;40.00
33827;DHT22;20128;45.582;5.298;2023-04-25T13:29:36;20.20;40.70
33827;DHT22;20128;45.582;5.298;2023-04-25T13:32:04;20.30;40.70
33827;DHT22;20128;45.582;5.298;2023-04-25T13:34:30;20.40;40.90
33827;DHT22;20128;45.582;5.298;2023-04-25T13:36:56;20.30;41.60
33827;DHT22;20128;45.582;5.298;2023-04-25T13:39:22;20.30;41.40
33827;DHT22;20128;45.582;5.298;2023-04-25T13:41:47;20.30;41.70
33827;DHT22;20128;45.582;5.298;2023-04-25T13:44:13;20.30;41.20
33827;DHT22;20128;45.582;5.298;2023-04-25T13:46:39;20.30;40.90
33827;DHT22;20128;45.582;5.298;2023-04-25T13:49:05;20.40;40.50
33827;DHT22;20128;45.582;5.298;2023-04-25T13:51:31;20.60;39.90
33827;DHT22;20128;45.582;5.298;2023-04-25T13:53:57;20.70;40.10
33827;DHT22;20128;45.582;5.298;2023-04-25T13:56:23;20.80;40.50
33827;DHT22;20128;45.582;5.298;2023-04-25T13:58:50;20.90;40.10
33827;DHT22;20128;45.582;5.298;2023-04-25T14:01:17;20.90;39.70
33827;DHT22;20128;45.582;5.298;2023-04-25T14:03:43;20.80;39.40
33827;DHT22;20128;45.582;5.298;2023-04-25T14:06:08;20.80;39.80
33827;DHT22;20128;45.582;5.298;2023-04-25T14:08:34;20.80;39.00
33827;DHT22;20128;45.582;5.298;2023-04-25T14:11:00;20.80;39.70
33827;DHT22;20128;45.582;5.298;2023-04-25T14:13:26;20.90;40.20
33827;DHT22;20128;45.582;5.298;2023-04-25T14:15:52;21.00;39.40
33827;DHT22;20128;45.582;5.298;2023-04-25T14:18:18;21.10;39.80
33827;DHT22;20128;45.582;5.298;2023-04-25T14:20:44;21.10;39.10
33827;DHT22;20128;45.582;5.298;2023-04-25T14:23:10;21.20;38.20
33827;DHT22;20128;45.582;5.298;2023-04-25T14:25:36;21.10;38.70
33827;DHT22;20128;45.582;5.298;2023-04-25T14:28:03;21.20;38.60
33827;DHT22;20128;45.582;5.298;2023-04-25T14:30:28;21.30;38.20
33827;DHT22;20128;45.582;5.298;2023-04-25T14:32:54;21.20;37.70
33827;DHT22;20128;45.582;5.298;2023-04-25T14:35:20;21.10;38.50
33827;DHT22;20128;45.582;5.298;2023-04-25T14:37:46;21.10;38.80
33827;DHT22;20128;45.582;5.298;2023-04-25T14:40:12;21.10;37.80
33827;DHT22;20128;45.582;5.298;2023-04-25T14:42:40;21.00;37.80
33827;DHT22;20128;45.582;5.298;2023-04-25T14:45:07;21.10;38.00
33827;DHT22;20128;45.582;5.298;2023-04-25T14:47:36;21.20;38.00
33827;DHT22;20128;45.582;5.298;2023-04-25T14:50:02;21.30;38.00
33827;DHT22;20128;45.582;5.298;2023-04-25T14:52:30;21.30;36.40
33827;DHT22;20128;45.582;5.298;2023-04-25T14:54:56;21.30;37.00
33827;DHT22;20128;45.582;5.298;2023-04-25T14:57:22;21.40;37.00
33827;DHT22;20128;45.582;5.298;2023-04-25T14:59:47;21.40;37.00
33827;DHT22;20128;45.582;5.298;2023-04-25T15:02:13;21.40;36.20
33827;DHT22;20128;45.582;5.298;2023-04-25T15:04:39;21.40;36.10
33827;DHT22;20128;45.582;5.298;2023-04-25T15:07:04;21.40;36.40
33827;DHT22;20128;45.582;5.298;2023-04-25T15:09:30;21.40;36.00
33827;DHT22;20128;45.582;5.298;2023-04-25T15:11:57;21.50;36.10
33827;DHT22;20128;45.582;5.298;2023-04-25T15:14:23;21.60;36.60
33827;DHT22;20128;45.582;5.298;2023-04-25T15:16:48;21.70;35.90
33827;DHT22;20128;45.582;5.298;2023-04-25T15:19:14;21.70;36.10
33827;DHT22;20128;45.582;5.298;2023-04-25T15:21:40;21.70;35.90
33827;DHT22;20128;45.582;5.298;2023-04-25T15:24:06;21.80;35.70
33827;DHT22;20128;45.582;5.298;2023-04-25T15:26:33;21.80;36.20
33827;DHT22;20128;45.582;5.298;2023-04-25T15:28:58;21.80;36.10
33827;DHT22;20128;45.582;5.298;2023-04-25T15:31:24;21.80;36.40
33827;DHT22;20128;45.582;5.298;2023-04-25T15:33:49;21.80;36.80
33827;DHT22;20128;45.582;5.298;2023-04-25T15:36:15;21.90;36.40